No.3tokuyomaru — JD3132 — position and weather

sailwx.info

Track history (hours):
 
Tides and Currents Weather Stations Pressure Air Temp Water Temp Dewpoint Dewpoint Depression Visibility Wind Speed Wind Dir Waves Ship Positions

No.3tokuyomaru

Last reported at 2016-Feb-04 08:31 UTC. Time now 2016-Feb-06 20:46 UTC.
Position N 34°35' E 135°05'.

Length 67 m; draft 4 m.

Type: Tanker. MMSI: 431002151.

Date/timePositionNaut miles runAvg speedWind from/ knotsBaromVisibWave heightAir tempDewpointWater temp
2016-Feb-04 08:31N 34°35' E 135°05'1212.3
2016-Feb-04 07:31N 34°34' E 135°20'4 0.6
2016-Feb-04 01:33N 34°36' E 135°16'6 5.5
2016-Feb-04 00:30N 34°40' E 135°11'0 0.0
2016-Feb-03 23:07N 34°40' E 135°11'0 0.0
2016-Feb-03 22:30N 34°40' E 135°11'0 0.0
2016-Feb-03 21:30N 34°40' E 135°11'0 0.0
2016-Feb-03 20:24N 34°40' E 135°11'0 0.0
2016-Feb-03 19:18N 34°40' E 135°11'0 0.0
2016-Feb-03 18:24N 34°40' E 135°11'0 0.0
2016-Feb-03 17:30N 34°40' E 135°11'0 0.0
2016-Feb-03 16:30N 34°40' E 135°11'0 0.0
2016-Feb-03 15:30N 34°40' E 135°11'0 0.0
2016-Feb-03 14:30N 34°40' E 135°11'0 0.0
2016-Feb-03 13:18N 34°40' E 135°11'0 0.0
2016-Feb-03 12:30N 34°40' E 135°11'0 0.0
2016-Feb-03 11:12N 34°40' E 135°11'0 0.0
2016-Feb-03 10:24N 34°40' E 135°11'0 0.0
2016-Feb-03 09:18N 34°40' E 135°11'0 0.0
2016-Feb-03 08:30N 34°40' E 135°11'0 0.0
2016-Feb-03 07:30N 34°40' E 135°11'0 0.0
2016-Feb-03 06:30N 34°40' E 135°11'0 0.0
2016-Feb-03 05:30N 34°40' E 135°11'5 5.1
2016-Feb-03 04:33N 34°36' E 135°08'  
2016-Jan-30 19:31N 34°36' E 135°03'2311.8
2016-Jan-30 17:33N 34°13' E 134°59'24210.0
2016-Jan-29 17:23N 35°12' E 139°45'1012.3
2016-Jan-29 16:33N 35°21' E 139°42'10 1.0
2016-Jan-29 07:03N 35°31' E 139°46'3 5.6
2016-Jan-29 06:34N 35°29' E 139°48'1110.7
2016-Jan-29 05:33N 35°18' E 139°44'9 9.1
2016-Jan-29 04:33N 35°09' E 139°44'6 0.3
2016-Jan-28 08:29N 35°08' E 139°36'  
Track history (hours):
 
Tides and Currents Weather Stations Pressure Air Temp Water Temp Dewpoint Dewpoint Depression Visibility Wind Speed Wind Dir Waves Ship Positions

No.3tokuyomaru

Last reported at 2016-Feb-04 08:31 UTC. Time now 2016-Feb-06 20:46 UTC.
Position N 34°35' E 135°05'.

Length 67 m; draft 4 m.

Type: Tanker. MMSI: 431002151.

Date/timePositionNaut miles runAvg speedWind from/ knotsBaromVisibWave heightAir tempDewpointWater temp
2016-Feb-04 08:31N 34°35' E 135°05'1212.3
2016-Feb-04 07:31N 34°34' E 135°20'4 0.6
2016-Feb-04 01:33N 34°36' E 135°16'6 5.5
2016-Feb-04 00:30N 34°40' E 135°11'0 0.0
2016-Feb-03 23:07N 34°40' E 135°11'0 0.0
2016-Feb-03 22:30N 34°40' E 135°11'0 0.0
2016-Feb-03 21:30N 34°40' E 135°11'0 0.0
2016-Feb-03 20:24N 34°40' E 135°11'0 0.0
2016-Feb-03 19:18N 34°40' E 135°11'0 0.0
2016-Feb-03 18:24N 34°40' E 135°11'0 0.0
2016-Feb-03 17:30N 34°40' E 135°11'0 0.0
2016-Feb-03 16:30N 34°40' E 135°11'0 0.0
2016-Feb-03 15:30N 34°40' E 135°11'0 0.0
2016-Feb-03 14:30N 34°40' E 135°11'0 0.0
2016-Feb-03 13:18N 34°40' E 135°11'0 0.0
2016-Feb-03 12:30N 34°40' E 135°11'0 0.0
2016-Feb-03 11:12N 34°40' E 135°11'0 0.0
2016-Feb-03 10:24N 34°40' E 135°11'0 0.0
2016-Feb-03 09:18N 34°40' E 135°11'0 0.0
2016-Feb-03 08:30N 34°40' E 135°11'0 0.0
2016-Feb-03 07:30N 34°40' E 135°11'0 0.0
2016-Feb-03 06:30N 34°40' E 135°11'0 0.0
2016-Feb-03 05:30N 34°40' E 135°11'5 5.1
2016-Feb-03 04:33N 34°36' E 135°08'  
2016-Jan-30 19:31N 34°36' E 135°03'2311.8
2016-Jan-30 17:33N 34°13' E 134°59'24210.0
2016-Jan-29 17:23N 35°12' E 139°45'1012.3
2016-Jan-29 16:33N 35°21' E 139°42'10 1.0
2016-Jan-29 07:03N 35°31' E 139°46'3 5.6
2016-Jan-29 06:34N 35°29' E 139°48'1110.7
2016-Jan-29 05:33N 35°18' E 139°44'9 9.1
2016-Jan-29 04:33N 35°09' E 139°44'6 0.3
2016-Jan-28 08:29N 35°08' E 139°36'  

Dump ship's entire track history